Back to Top

Language: 

My Weather Underground Personal Weather Station Historical Data with Graphs...

Delerius Weather Station Historical Data
Daily Summary for April 2, 2017 Units:  Both    English   Metric
« Previous Day
Next Day »
Daily Weekly Monthly Yearly Custom
  High: Low: Average:
Temperature: 59.5 °F /  15.3 °C 42.6 °F /  5.9 °C 50.1 °F /  10.1 °C
Dew Point: 46.2 °F /  7.9 °C 39.0 °F /  3.9 °C 42.7 °F /  5.9 °C
Humidity: 92 % 51 % 77 %
Wind Speed: 7.0 mph /  11.3 km/h - 2.5 mph /  4 km/h
Wind Gust: 14.0 mph /  22.5 km/h - -
Wind:- - West
Pressure: 30.27 in /  1024.9 hPa 29.94 in /  1013.8 hPa -
Precipitation: 0.00 in /  0 mm    
Historical Graphs
 
 
Tabular Data for April 2, 2017
Time Temperature Dew Point Pressure Wind Wind Speed Wind Gust Humidity Rainfall Rate (Hourly) solar Conditions
00:03 47.1 °F /  8.4 °C 43.7 °F /  6.5 °C 29.94 in /  1013.8 hPa WNW 6.0 mph /  9.7 km/h 11.0 mph /  17.7 km/h 88 % 0.00 in /  0 mm 0 W/m2
00:08 47.1 °F /  8.4 °C 43.7 °F /  6.5 °C 29.94 in /  1013.8 hPa WNW 6.0 mph /  9.7 km/h 11.0 mph /  17.7 km/h 88 % 0.00 in /  0 mm 0 W/m2
00:13 47.1 °F /  8.4 °C 43.7 °F /  6.5 °C 29.94 in /  1013.8 hPa WNW 6.0 mph /  9.7 km/h 11.0 mph /  17.7 km/h 88 % 0.00 in /  0 mm 0 W/m2
00:18 46.9 °F /  8.3 °C 43.6 °F /  6.4 °C 29.95 in /  1014.1 hPa WNW 7.0 mph /  11.3 km/h 11.0 mph /  17.7 km/h 88 % 0.00 in /  0 mm 0 W/m2
00:23 46.9 °F /  8.3 °C 43.6 °F /  6.4 °C 29.94 in /  1013.8 hPa WNW 7.0 mph /  11.3 km/h 11.0 mph /  17.7 km/h 88 % 0.00 in /  0 mm 0 W/m2
00:28 46.8 °F /  8.2 °C 43.4 °F /  6.3 °C 29.95 in /  1014.1 hPa WNW 7.0 mph /  11.3 km/h 13.0 mph /  20.9 km/h 88 % 0.00 in /  0 mm 0 W/m2
00:33 46.8 °F /  8.2 °C 43.4 °F /  6.3 °C 29.95 in /  1014.1 hPa WNW 7.0 mph /  11.3 km/h 14.0 mph /  22.5 km/h 88 % 0.00 in /  0 mm 0 W/m2
00:38 46.8 °F /  8.2 °C 43.4 °F /  6.3 °C 29.95 in /  1014.1 hPa WNW 6.0 mph /  9.7 km/h 14.0 mph /  22.5 km/h 88 % 0.00 in /  0 mm 0 W/m2
00:43 46.8 °F /  8.2 °C 43.4 °F /  6.3 °C 29.95 in /  1014.1 hPa WNW 6.0 mph /  9.7 km/h 12.0 mph /  19.3 km/h 88 % 0.00 in /  0 mm 0 W/m2
00:48 46.6 °F /  8.1 °C 43.2 °F /  6.2 °C 29.95 in /  1014.1 hPa WNW 6.0 mph /  9.7 km/h 12.0 mph /  19.3 km/h 88 % 0.00 in /  0 mm 0 W/m2
00:53 46.6 °F /  8.1 °C 43.2 °F /  6.2 °C 29.95 in /  1014.1 hPa WNW 6.0 mph /  9.7 km/h 12.0 mph /  19.3 km/h 88 % 0.00 in /  0 mm 0 W/m2
00:58 46.6 °F /  8.1 °C 43.2 °F /  6.2 °C 29.95 in /  1014.1 hPa WNW 5.0 mph /  8 km/h 11.0 mph /  17.7 km/h 88 % 0.00 in /  0 mm 0 W/m2
01:03 46.4 °F /  8 °C 43.0 °F /  6.1 °C 29.96 in /  1014.4 hPa WNW 5.0 mph /  8 km/h 10.0 mph /  16.1 km/h 88 % 0.00 in /  0 mm 0 W/m2
01:08 46.2 °F /  7.9 °C 42.9 °F /  6.1 °C 29.96 in /  1014.4 hPa WNW 5.0 mph /  8 km/h 10.0 mph /  16.1 km/h 88 % 0.00 in /  0 mm 0 W/m2
01:13 46.2 °F /  7.9 °C 42.9 °F /  6.1 °C 29.96 in /  1014.4 hPa WNW 5.0 mph /  8 km/h 9.0 mph /  14.5 km/h 88 % 0.00 in /  0 mm 0 W/m2
01:18 46.2 °F /  7.9 °C 42.9 °F /  6.1 °C 29.97 in /  1014.8 hPa NW 4.0 mph /  6.4 km/h 9.0 mph /  14.5 km/h 88 % 0.00 in /  0 mm 0 W/m2
01:23 46.0 °F /  7.8 °C 42.7 °F /  5.9 °C 29.97 in /  1014.8 hPa NW 2.0 mph /  3.2 km/h 8.0 mph /  12.9 km/h 88 % 0.00 in /  0 mm 0 W/m2
01:28 46.0 °F /  7.8 °C 42.7 °F /  5.9 °C 29.97 in /  1014.8 hPa NW 1.0 mph /  1.6 km/h 5.0 mph /  8 km/h 88 % 0.00 in /  0 mm 0 W/m2
01:33 45.9 °F /  7.7 °C 42.8 °F /  6 °C 29.97 in /  1014.8 hPa NW 1.0 mph /  1.6 km/h 5.0 mph /  8 km/h 89 % 0.00 in /  0 mm 0 W/m2
01:38 45.7 °F /  7.6 °C 42.6 °F /  5.9 °C 29.97 in /  1014.8 hPa NNW 1.0 mph /  1.6 km/h 5.0 mph /  8 km/h 89 % 0.00 in /  0 mm 0 W/m2
01:44 45.5 °F /  7.5 °C 42.4 °F /  5.8 °C 29.98 in /  1015.1 hPa NNW 1.0 mph /  1.6 km/h 5.0 mph /  8 km/h 89 % 0.00 in /  0 mm 0 W/m2
01:49 45.5 °F /  7.5 °C 42.4 °F /  5.8 °C 29.98 in /  1015.1 hPa NNW 2.0 mph /  3.2 km/h 6.0 mph /  9.7 km/h 89 % 0.00 in /  0 mm 0 W/m2
01:54 45.5 °F /  7.5 °C 42.4 °F /  5.8 °C 29.98 in /  1015.1 hPa NW 3.0 mph /  4.8 km/h 7.0 mph /  11.3 km/h 89 % 0.00 in /  0 mm 0 W/m2
01:59 45.3 °F /  7.4 °C 42.3 °F /  5.7 °C 29.98 in /  1015.1 hPa NW 2.0 mph /  3.2 km/h 7.0 mph /  11.3 km/h 89 % 0.00 in /  0 mm 0 W/m2
02:04 45.1 °F /  7.3 °C 42.1 °F /  5.6 °C 29.98 in /  1015.1 hPa NW 1.0 mph /  1.6 km/h 5.0 mph /  8 km/h 89 % 0.00 in /  0 mm 0 W/m2
02:09 45.0 °F /  7.2 °C 41.9 °F /  5.5 °C 29.98 in /  1015.1 hPa NW 2.0 mph /  3.2 km/h 5.0 mph /  8 km/h 89 % 0.00 in /  0 mm 0 W/m2
02:14 45.0 °F /  7.2 °C 42.2 °F /  5.7 °C 29.98 in /  1015.1 hPa NW 4.0 mph /  6.4 km/h 11.0 mph /  17.7 km/h 90 % 0.00 in /  0 mm 0 W/m2
02:19 45.1 °F /  7.3 °C 42.4 °F /  5.8 °C 29.98 in /  1015.1 hPa NW 6.0 mph /  9.7 km/h 11.0 mph /  17.7 km/h 90 % 0.00 in /  0 mm 0 W/m2
02:24 45.1 °F /  7.3 °C 42.1 °F /  5.6 °C 29.99 in /  1015.5 hPa NW 6.0 mph /  9.7 km/h 11.0 mph /  17.7 km/h 89 % 0.00 in /  0 mm 0 W/m2
02:29 45.1 °F /  7.3 °C 42.1 °F /  5.6 °C 29.99 in /  1015.5 hPa NW 5.0 mph /  8 km/h 10.0 mph /  16.1 km/h 89 % 0.00 in /  0 mm 0 W/m2
02:34 45.1 °F /  7.3 °C 42.1 °F /  5.6 °C 29.99 in /  1015.5 hPa WNW 5.0 mph /  8 km/h 8.0 mph /  12.9 km/h 89 % 0.00 in /  0 mm 0 W/m2
02:39 45.0 °F /  7.2 °C 41.9 °F /  5.5 °C 29.99 in /  1015.5 hPa WNW 4.0 mph /  6.4 km/h 8.0 mph /  12.9 km/h 89 % 0.00 in /  0 mm 0 W/m2
02:44 45.0 °F /  7.2 °C 41.9 °F /  5.5 °C 29.99 in /  1015.5 hPa WNW 4.0 mph /  6.4 km/h 8.0 mph /  12.9 km/h 89 % 0.00 in /  0 mm 0 W/m2
02:49 45.0 °F /  7.2 °C 41.9 °F /  5.5 °C 29.99 in /  1015.5 hPa WNW 4.0 mph /  6.4 km/h 8.0 mph /  12.9 km/h 89 % 0.00 in /  0 mm 0 W/m2
02:54 44.8 °F /  7.1 °C 42.0 °F /  5.6 °C 30.00 in /  1015.8 hPa WNW 4.0 mph /  6.4 km/h 7.0 mph /  11.3 km/h 90 % 0.00 in /  0 mm 0 W/m2
02:59 44.8 °F /  7.1 °C 42.0 °F /  5.6 °C 30.00 in /  1015.8 hPa WNW 3.0 mph /  4.8 km/h 8.0 mph /  12.9 km/h 90 % 0.00 in /  0 mm 0 W/m2
03:04 44.8 °F /  7.1 °C 42.0 °F /  5.6 °C 30.00 in /  1015.8 hPa WNW 3.0 mph /  4.8 km/h 8.0 mph /  12.9 km/h 90 % 0.00 in /  0 mm 0 W/m2
03:09 44.8 °F /  7.1 °C 42.0 °F /  5.6 °C 30.00 in /  1015.8 hPa WNW 3.0 mph /  4.8 km/h 8.0 mph /  12.9 km/h 90 % 0.00 in /  0 mm 0 W/m2
03:14 44.8 °F /  7.1 °C 42.0 °F /  5.6 °C 30.00 in /  1015.8 hPa WNW 4.0 mph /  6.4 km/h 12.0 mph /  19.3 km/h 90 % 0.00 in /  0 mm 0 W/m2
03:19 45.0 °F /  7.2 °C 42.5 °F /  5.8 °C 30.00 in /  1015.8 hPa WNW 5.0 mph /  8 km/h 12.0 mph /  19.3 km/h 91 % 0.00 in /  0 mm 0 W/m2
03:25 45.1 °F /  7.3 °C 42.4 °F /  5.8 °C 30.01 in /  1016.1 hPa WNW 5.0 mph /  8 km/h 10.0 mph /  16.1 km/h 90 % 0.00 in /  0 mm 0 W/m2
03:30 45.3 °F /  7.4 °C 42.6 °F /  5.9 °C 30.01 in /  1016.1 hPa WNW 4.0 mph /  6.4 km/h 8.0 mph /  12.9 km/h 90 % 0.00 in /  0 mm 0 W/m2
03:35 45.3 °F /  7.4 °C 42.6 °F /  5.9 °C 30.01 in /  1016.1 hPa WNW 2.0 mph /  3.2 km/h 8.0 mph /  12.9 km/h 90 % 0.00 in /  0 mm 0 W/m2
03:40 45.5 °F /  7.5 °C 42.7 °F /  5.9 °C 30.01 in /  1016.1 hPa West 1.0 mph /  1.6 km/h 6.0 mph /  9.7 km/h 90 % 0.00 in /  0 mm 0 W/m2
03:45 45.7 °F /  7.6 °C 42.9 °F /  6.1 °C 30.01 in /  1016.1 hPa West 1.0 mph /  1.6 km/h 6.0 mph /  9.7 km/h 90 % 0.00 in /  0 mm 0 W/m2
03:50 45.7 °F /  7.6 °C 42.9 °F /  6.1 °C 30.01 in /  1016.1 hPa West 1.0 mph /  1.6 km/h 4.0 mph /  6.4 km/h 90 % 0.00 in /  0 mm 0 W/m2
03:55 45.5 °F /  7.5 °C 42.4 °F /  5.8 °C 30.01 in /  1016.1 hPa West 1.0 mph /  1.6 km/h 6.0 mph /  9.7 km/h 89 % 0.00 in /  0 mm 0 W/m2
04:00 45.3 °F /  7.4 °C 42.3 °F /  5.7 °C 30.01 in /  1016.1 hPa WNW 2.0 mph /  3.2 km/h 6.0 mph /  9.7 km/h 89 % 0.00 in /  0 mm 0 W/m2
04:05 45.1 °F /  7.3 °C 42.1 °F /  5.6 °C 30.01 in /  1016.1 hPa WNW 3.0 mph /  4.8 km/h 8.0 mph /  12.9 km/h 89 % 0.00 in /  0 mm 0 W/m2
04:10 45.0 °F /  7.2 °C 42.2 °F /  5.7 °C 30.01 in /  1016.1 hPa WNW 5.0 mph /  8 km/h 10.0 mph /  16.1 km/h 90 % 0.00 in /  0 mm 0 W/m2
04:14 44.8 °F /  7.1 °C 42.0 °F /  5.6 °C 30.01 in /  1016.1 hPa WNW 6.0 mph /  9.7 km/h 10.0 mph /  16.1 km/h 90 % 0.00 in /  0 mm 0 W/m2
04:19 44.8 °F /  7.1 °C 42.0 °F /  5.6 °C 30.01 in /  1016.1 hPa WNW 6.0 mph /  9.7 km/h 10.0 mph /  16.1 km/h 90 % 0.00 in /  0 mm 0 W/m2
04:24 44.6 °F /  7 °C 41.8 °F /  5.4 °C 30.02 in /  1016.5 hPa WNW 6.0 mph /  9.7 km/h 9.0 mph /  14.5 km/h 90 % 0.00 in /  0 mm 0 W/m2
04:29 44.4 °F /  6.9 °C 41.7 °F /  5.4 °C 30.01 in /  1016.1 hPa WNW 5.0 mph /  8 km/h 9.0 mph /  14.5 km/h 90 % 0.00 in /  0 mm 0 W/m2
04:34 44.2 °F /  6.8 °C 41.5 °F /  5.3 °C 30.02 in /  1016.5 hPa WNW 4.0 mph /  6.4 km/h 8.0 mph /  12.9 km/h 90 % 0.00 in /  0 mm 0 W/m2
04:39 44.1 °F /  6.7 °C 41.3 °F /  5.2 °C 30.02 in /  1016.5 hPa WNW 3.0 mph /  4.8 km/h 7.0 mph /  11.3 km/h 90 % 0.00 in /  0 mm 0 W/m2
04:44 43.9 °F /  6.6 °C 41.1 °F /  5.1 °C 30.02 in /  1016.5 hPa WNW 4.0 mph /  6.4 km/h 8.0 mph /  12.9 km/h 90 % 0.00 in /  0 mm 0 W/m2
04:49 43.7 °F /  6.5 °C 41.2 °F /  5.1 °C 30.02 in /  1016.5 hPa WNW 5.0 mph /  8 km/h 10.0 mph /  16.1 km/h 91 % 0.00 in /  0 mm 0 W/m2
04:54 43.7 °F /  6.5 °C 41.2 °F /  5.1 °C 30.02 in /  1016.5 hPa WNW 6.0 mph /  9.7 km/h 12.0 mph /  19.3 km/h 91 % 0.00 in /  0 mm 0 W/m2
04:59 43.5 °F /  6.4 °C 41.1 °F /  5.1 °C 30.02 in /  1016.5 hPa WNW 5.0 mph /  8 km/h 12.0 mph /  19.3 km/h 91 % 0.00 in /  0 mm 0 W/m2
05:04 43.3 °F /  6.3 °C 40.9 °F /  4.9 °C 30.02 in /  1016.5 hPa WNW 4.0 mph /  6.4 km/h 8.0 mph /  12.9 km/h 91 % 0.00 in /  0 mm 0 W/m2
05:09 43.3 °F /  6.3 °C 40.9 °F /  4.9 °C 30.03 in /  1016.8 hPa WNW 5.0 mph /  8 km/h 9.0 mph /  14.5 km/h 91 % 0.00 in /  0 mm 0 W/m2
05:14 43.3 °F /  6.3 °C 40.9 °F /  4.9 °C 30.03 in /  1016.8 hPa WNW 6.0 mph /  9.7 km/h 10.0 mph /  16.1 km/h 91 % 0.00 in /  0 mm 0 W/m2
05:19 43.3 °F /  6.3 °C 40.9 °F /  4.9 °C 30.04 in /  1017.2 hPa WNW 6.0 mph /  9.7 km/h 10.0 mph /  16.1 km/h 91 % 0.00 in /  0 mm 0 W/m2
05:24 43.3 °F /  6.3 °C 40.9 °F /  4.9 °C 30.04 in /  1017.2 hPa NW 6.0 mph /  9.7 km/h 10.0 mph /  16.1 km/h 91 % 0.00 in /  0 mm 0 W/m2
05:29 43.2 °F /  6.2 °C 40.7 °F /  4.8 °C 30.04 in /  1017.2 hPa NW 4.0 mph /  6.4 km/h 9.0 mph /  14.5 km/h 91 % 0.00 in /  0 mm 0 W/m2
05:34 43.2 °F /  6.2 °C 40.7 °F /  4.8 °C 30.04 in /  1017.2 hPa NW 3.0 mph /  4.8 km/h 6.0 mph /  9.7 km/h 91 % 0.00 in /  0 mm 0 W/m2
05:39 43.0 °F /  6.1 °C 40.5 °F /  4.7 °C 30.05 in /  1017.5 hPa NW 3.0 mph /  4.8 km/h 8.0 mph /  12.9 km/h 91 % 0.00 in /  0 mm 0 W/m2
05:44 43.0 °F /  6.1 °C 40.5 °F /  4.7 °C 30.05 in /  1017.5 hPa NW 3.0 mph /  4.8 km/h 8.0 mph /  12.9 km/h 91 % 0.00 in /  0 mm 0 W/m2
05:49 43.0 °F /  6.1 °C 40.5 °F /  4.7 °C 30.05 in /  1017.5 hPa NW 2.0 mph /  3.2 km/h 5.0 mph /  8 km/h 91 % 0.00 in /  0 mm 0 W/m2
05:54 42.8 °F /  6 °C 40.4 °F /  4.7 °C 30.05 in /  1017.5 hPa WNW 2.0 mph /  3.2 km/h 6.0 mph /  9.7 km/h 91 % 0.00 in /  0 mm 0 W/m2
05:59 42.6 °F /  5.9 °C 40.2 °F /  4.6 °C 30.05 in /  1017.5 hPa WNW 3.0 mph /  4.8 km/h 6.0 mph /  9.7 km/h 91 % 0.00 in /  0 mm 0 W/m2
06:04 42.6 °F /  5.9 °C 40.5 °F /  4.7 °C 30.05 in /  1017.5 hPa WNW 5.0 mph /  8 km/h 9.0 mph /  14.5 km/h 92 % 0.00 in /  0 mm 0 W/m2
06:09 42.6 °F /  5.9 °C 40.5 °F /  4.7 °C 30.05 in /  1017.5 hPa WNW 6.0 mph /  9.7 km/h 11.0 mph /  17.7 km/h 92 % 0.00 in /  0 mm 0 W/m2
06:14 42.6 °F /  5.9 °C 40.5 °F /  4.7 °C 30.06 in /  1017.8 hPa WNW 6.0 mph /  9.7 km/h 11.0 mph /  17.7 km/h 92 % 0.00 in /  0 mm 0 W/m2
06:19 42.6 °F /  5.9 °C 40.5 °F /  4.7 °C 30.06 in /  1017.8 hPa WNW 6.0 mph /  9.7 km/h 11.0 mph /  17.7 km/h 92 % 0.00 in /  0 mm 0 W/m2
06:24 42.6 °F /  5.9 °C 40.5 °F /  4.7 °C 30.06 in /  1017.8 hPa WNW 5.0 mph /  8 km/h 10.0 mph /  16.1 km/h 92 % 0.00 in /  0 mm 0 W/m2
06:29 42.6 °F /  5.9 °C 40.5 °F /  4.7 °C 30.06 in /  1017.8 hPa WNW 5.0 mph /  8 km/h 10.0 mph /  16.1 km/h 92 % 0.00 in /  0 mm 0 W/m2
06:34 42.6 °F /  5.9 °C 40.5 °F /  4.7 °C 30.07 in /  1018.2 hPa WNW 4.0 mph /  6.4 km/h 7.0 mph /  11.3 km/h 92 % 0.00 in /  0 mm 0 W/m2
06:39 42.8 °F /  6 °C 40.6 °F /  4.8 °C 30.07 in /  1018.2 hPa WNW 4.0 mph /  6.4 km/h 7.0 mph /  11.3 km/h 92 % 0.00 in /  0 mm 7 W/m2
06:44 43.0 °F /  6.1 °C 40.8 °F /  4.9 °C 30.07 in /  1018.2 hPa WNW 4.0 mph /  6.4 km/h 8.0 mph /  12.9 km/h 92 % 0.00 in /  0 mm 7 W/m2
06:49 43.0 °F /  6.1 °C 40.8 °F /  4.9 °C 30.08 in /  1018.5 hPa WNW 4.0 mph /  6.4 km/h 8.0 mph /  12.9 km/h 92 % 0.00 in /  0 mm 16 W/m2
06:54 43.0 °F /  6.1 °C 40.8 °F /  4.9 °C 30.08 in /  1018.5 hPa WNW 4.0 mph /  6.4 km/h 8.0 mph /  12.9 km/h 92 % 0.00 in /  0 mm 12 W/m2
06:59 43.2 °F /  6.2 °C 41.0 °F /  5 °C 30.08 in /  1018.5 hPa WNW 4.0 mph /  6.4 km/h 8.0 mph /  12.9 km/h 92 % 0.00 in /  0 mm 14 W/m2
07:04 43.2 °F /  6.2 °C 41.0 °F /  5 °C 30.08 in /  1018.5 hPa WNW 5.0 mph /  8 km/h 10.0 mph /  16.1 km/h 92 % 0.00 in /  0 mm 21 W/m2
07:09 43.3 °F /  6.3 °C 41.2 °F /  5.1 °C 30.09 in /  1018.8 hPa WNW 5.0 mph /  8 km/h 10.0 mph /  16.1 km/h 92 % 0.00 in /  0 mm 19 W/m2
07:14 43.5 °F /  6.4 °C 41.4 °F /  5.2 °C 30.09 in /  1018.8 hPa WNW 5.0 mph /  8 km/h 10.0 mph /  16.1 km/h 92 % 0.00 in /  0 mm 21 W/m2
07:20 43.9 °F /  6.6 °C 41.7 °F /  5.4 °C 30.09 in /  1018.8 hPa WNW 5.0 mph /  8 km/h 10.0 mph /  16.1 km/h 92 % 0.00 in /  0 mm 26 W/m2
07:25 44.1 °F /  6.7 °C 41.6 °F /  5.3 °C 30.10 in /  1019.2 hPa WNW 5.0 mph /  8 km/h 9.0 mph /  14.5 km/h 91 % 0.00 in /  0 mm 28 W/m2
07:30 44.2 °F /  6.8 °C 41.8 °F /  5.4 °C 30.10 in /  1019.2 hPa NW 5.0 mph /  8 km/h 10.0 mph /  16.1 km/h 91 % 0.00 in /  0 mm 44 W/m2
07:35 44.2 °F /  6.8 °C 41.8 °F /  5.4 °C 30.10 in /  1019.2 hPa NW 5.0 mph /  8 km/h 10.0 mph /  16.1 km/h 91 % 0.00 in /  0 mm 60 W/m2
07:40 44.6 °F /  7 °C 41.8 °F /  5.4 °C 30.10 in /  1019.2 hPa NW 6.0 mph /  9.7 km/h 11.0 mph /  17.7 km/h 90 % 0.00 in /  0 mm 49 W/m2
07:45 44.8 °F /  7.1 °C 42.0 °F /  5.6 °C 30.11 in /  1019.5 hPa WNW 7.0 mph /  11.3 km/h 11.0 mph /  17.7 km/h 90 % 0.00 in /  0 mm 51 W/m2
07:50 45.0 °F /  7.2 °C 42.2 °F /  5.7 °C 30.11 in /  1019.5 hPa WNW 6.0 mph /  9.7 km/h 12.0 mph /  19.3 km/h 90 % 0.00 in /  0 mm 46 W/m2
07:55 45.0 °F /  7.2 °C 41.9 °F /  5.5 °C 30.11 in /  1019.5 hPa NW 6.0 mph /  9.7 km/h 12.0 mph /  19.3 km/h 89 % 0.00 in /  0 mm 47 W/m2
08:00 45.1 °F /  7.3 °C 42.1 °F /  5.6 °C 30.12 in /  1019.9 hPa NW 6.0 mph /  9.7 km/h 11.0 mph /  17.7 km/h 89 % 0.00 in /  0 mm 86 W/m2
08:05 45.3 °F /  7.4 °C 42.3 °F /  5.7 °C 30.12 in /  1019.9 hPa NW 6.0 mph /  9.7 km/h 11.0 mph /  17.7 km/h 89 % 0.00 in /  0 mm 113 W/m2
08:10 45.5 °F /  7.5 °C 42.2 °F /  5.7 °C 30.12 in /  1019.9 hPa NW 6.0 mph /  9.7 km/h 10.0 mph /  16.1 km/h 88 % 0.00 in /  0 mm 98 W/m2
08:15 45.9 °F /  7.7 °C 42.5 °F /  5.8 °C 30.12 in /  1019.9 hPa NW 5.0 mph /  8 km/h 10.0 mph /  16.1 km/h 88 % 0.00 in /  0 mm 107 W/m2
08:20 46.0 °F /  7.8 °C 42.7 °F /  5.9 °C 30.13 in /  1020.2 hPa NW 4.0 mph /  6.4 km/h 9.0 mph /  14.5 km/h 88 % 0.00 in /  0 mm 153 W/m2
08:25 46.2 °F /  7.9 °C 42.9 °F /  6.1 °C 30.13 in /  1020.2 hPa NW 4.0 mph /  6.4 km/h 8.0 mph /  12.9 km/h 88 % 0.00 in /  0 mm 135 W/m2
08:30 46.6 °F /  8.1 °C 42.9 °F /  6.1 °C 30.13 in /  1020.2 hPa WNW 5.0 mph /  8 km/h 10.0 mph /  16.1 km/h 87 % 0.00 in /  0 mm 139 W/m2
08:35 46.8 °F /  8.2 °C 42.8 °F /  6 °C 30.13 in /  1020.2 hPa WNW 5.0 mph /  8 km/h 10.0 mph /  16.1 km/h 86 % 0.00 in /  0 mm 158 W/m2
08:40 46.9 °F /  8.3 °C 43.0 °F /  6.1 °C 30.13 in /  1020.2 hPa WNW 5.0 mph /  8 km/h 8.0 mph /  12.9 km/h 86 % 0.00 in /  0 mm 149 W/m2
08:45 47.1 °F /  8.4 °C 43.1 °F /  6.2 °C 30.14 in /  1020.5 hPa WNW 5.0 mph /  8 km/h 10.0 mph /  16.1 km/h 86 % 0.00 in /  0 mm 199 W/m2
08:50 47.3 °F /  8.5 °C 43.3 °F /  6.3 °C 30.14 in /  1020.5 hPa WNW 6.0 mph /  9.7 km/h 12.0 mph /  19.3 km/h 86 % 0.00 in /  0 mm 199 W/m2
08:55 47.5 °F /  8.6 °C 43.2 °F /  6.2 °C 30.14 in /  1020.5 hPa WNW 6.0 mph /  9.7 km/h 12.0 mph /  19.3 km/h 85 % 0.00 in /  0 mm 156 W/m2
09:00 47.7 °F /  8.7 °C 43.1 °F /  6.2 °C 30.14 in /  1020.5 hPa WNW 6.0 mph /  9.7 km/h 11.0 mph /  17.7 km/h 84 % 0.00 in /  0 mm 179 W/m2
09:05 47.8 °F /  8.8 °C 43.2 °F /  6.2 °C 30.15 in /  1020.9 hPa WNW 5.0 mph /  8 km/h 10.0 mph /  16.1 km/h 84 % 0.00 in /  0 mm 220 W/m2
09:10 48.2 °F /  9 °C 43.6 °F /  6.4 °C 30.15 in /  1020.9 hPa NW 4.0 mph /  6.4 km/h 10.0 mph /  16.1 km/h 84 % 0.00 in /  0 mm 199 W/m2
09:16 48.4 °F /  9.1 °C 43.5 °F /  6.4 °C 30.15 in /  1020.9 hPa NW 5.0 mph /  8 km/h 11.0 mph /  17.7 km/h 83 % 0.00 in /  0 mm 190 W/m2
09:21 48.6 °F /  9.2 °C 43.3 °F /  6.3 °C 30.15 in /  1020.9 hPa NW 5.0 mph /  8 km/h 11.0 mph /  17.7 km/h 82 % 0.00 in /  0 mm 188 W/m2
09:26 48.7 °F /  9.3 °C 43.5 °F /  6.4 °C 30.15 in /  1020.9 hPa NW 5.0 mph /  8 km/h 9.0 mph /  14.5 km/h 82 % 0.00 in /  0 mm 192 W/m2
09:31 48.6 °F /  9.2 °C 43.3 °F /  6.3 °C 30.16 in /  1021.2 hPa NW 6.0 mph /  9.7 km/h 10.0 mph /  16.1 km/h 82 % 0.00 in /  0 mm 158 W/m2
09:36 48.6 °F /  9.2 °C 43.3 °F /  6.3 °C 30.16 in /  1021.2 hPa NNW 5.0 mph /  8 km/h 10.0 mph /  16.1 km/h 82 % 0.00 in /  0 mm 135 W/m2
09:41 48.6 °F /  9.2 °C 43.3 °F /  6.3 °C 30.16 in /  1021.2 hPa NNW 3.0 mph /  4.8 km/h 8.0 mph /  12.9 km/h 82 % 0.00 in /  0 mm 144 W/m2
09:46 48.7 °F /  9.3 °C 43.5 °F /  6.4 °C 30.16 in /  1021.2 hPa NNW 3.0 mph /  4.8 km/h 7.0 mph /  11.3 km/h 82 % 0.00 in /  0 mm 135 W/m2
09:51 48.7 °F /  9.3 °C 43.2 °F /  6.2 °C 30.16 in /  1021.2 hPa NW 3.0 mph /  4.8 km/h 7.0 mph /  11.3 km/h 81 % 0.00 in /  0 mm 167 W/m2
09:56 48.9 °F /  9.4 °C 43.7 °F /  6.5 °C 30.17 in /  1021.6 hPa NNW 2.0 mph /  3.2 km/h 7.0 mph /  11.3 km/h 82 % 0.00 in /  0 mm 248 W/m2
10:01 49.1 °F /  9.5 °C 43.8 °F /  6.6 °C 30.17 in /  1021.6 hPa NNW 2.0 mph /  3.2 km/h 8.0 mph /  12.9 km/h 82 % 0.00 in /  0 mm 288 W/m2
10:06 49.5 °F /  9.7 °C 44.2 °F /  6.8 °C 30.17 in /  1021.6 hPa NW 4.0 mph /  6.4 km/h 9.0 mph /  14.5 km/h 82 % 0.00 in /  0 mm 301 W/m2
10:11 49.8 °F /  9.9 °C 44.2 °F /  6.8 °C 30.17 in /  1021.6 hPa NNW 4.0 mph /  6.4 km/h 9.0 mph /  14.5 km/h 81 % 0.00 in /  0 mm 302 W/m2
10:16 50.2 °F /  10.1 °C 44.6 °F /  7 °C 30.17 in /  1021.6 hPa NNW 3.0 mph /  4.8 km/h 7.0 mph /  11.3 km/h 81 % 0.00 in /  0 mm 309 W/m2
10:21 50.4 °F /  10.2 °C 44.4 °F /  6.9 °C 30.17 in /  1021.6 hPa NNW 4.0 mph /  6.4 km/h 10.0 mph /  16.1 km/h 80 % 0.00 in /  0 mm 320 W/m2
10:26 50.5 °F /  10.3 °C 44.9 °F /  7.2 °C 30.17 in /  1021.6 hPa NNW 3.0 mph /  4.8 km/h 10.0 mph /  16.1 km/h 81 % 0.00 in /  0 mm 299 W/m2
10:31 50.9 °F /  10.5 °C 44.9 °F /  7.2 °C 30.17 in /  1021.6 hPa NNW 3.0 mph /  4.8 km/h 8.0 mph /  12.9 km/h 80 % 0.00 in /  0 mm 288 W/m2
10:36 51.1 °F /  10.6 °C 45.1 °F /  7.3 °C 30.18 in /  1021.9 hPa NNW 2.0 mph /  3.2 km/h 7.0 mph /  11.3 km/h 80 % 0.00 in /  0 mm 373 W/m2
10:41 51.3 °F /  10.7 °C 45.0 °F /  7.2 °C 30.17 in /  1021.6 hPa NNW 1.0 mph /  1.6 km/h 5.0 mph /  8 km/h 79 % 0.00 in /  0 mm 580 W/m2
10:46 51.8 °F /  11 °C 45.2 °F /  7.3 °C 30.17 in /  1021.6 hPa NW 1.0 mph /  1.6 km/h 4.0 mph /  6.4 km/h 78 % 0.00 in /  0 mm 332 W/m2
10:51 52.2 °F /  11.2 °C 45.2 °F /  7.3 °C 30.17 in /  1021.6 hPa NNW 1.0 mph /  1.6 km/h 5.0 mph /  8 km/h 77 % 0.00 in /  0 mm 362 W/m2
10:56 52.3 °F /  11.3 °C 45.3 °F /  7.4 °C 30.18 in /  1021.9 hPa North 2.0 mph /  3.2 km/h 9.0 mph /  14.5 km/h 77 % 0.00 in /  0 mm 341 W/m2
11:01 52.5 °F /  11.4 °C 45.2 °F /  7.3 °C 30.18 in /  1021.9 hPa NNE 2.0 mph /  3.2 km/h 9.0 mph /  14.5 km/h 76 % 0.00 in /  0 mm 216 W/m2
11:06 52.3 °F /  11.3 °C 44.6 °F /  7 °C 30.18 in /  1021.9 hPa NE 2.0 mph /  3.2 km/h 8.0 mph /  12.9 km/h 75 % 0.00 in /  0 mm 246 W/m2
11:11 52.2 °F /  11.2 °C 44.8 °F /  7.1 °C 30.18 in /  1021.9 hPa NE 2.0 mph /  3.2 km/h 8.0 mph /  12.9 km/h 76 % 0.00 in /  0 mm 288 W/m2
11:16 52.2 °F /  11.2 °C 44.5 °F /  6.9 °C 30.18 in /  1021.9 hPa East 1.0 mph /  1.6 km/h 5.0 mph /  8 km/h 75 % 0.00 in /  0 mm 290 W/m2
11:21 52.3 °F /  11.3 °C 44.6 °F /  7 °C 30.19 in /  1022.2 hPa SE 1.0 mph /  1.6 km/h 4.0 mph /  6.4 km/h 75 % 0.00 in /  0 mm 257 W/m2
11:26 52.5 °F /  11.4 °C 44.8 °F /  7.1 °C 30.19 in /  1022.2 hPa North 1.0 mph /  1.6 km/h 6.0 mph /  9.7 km/h 75 % 0.00 in /  0 mm 251 W/m2
11:31 52.5 °F /  11.4 °C 45.5 °F /  7.5 °C 30.19 in /  1022.2 hPa North 2.0 mph /  3.2 km/h 6.0 mph /  9.7 km/h 77 % 0.00 in /  0 mm 221 W/m2
11:36 52.7 °F /  11.5 °C 45.3 °F /  7.4 °C 30.19 in /  1022.2 hPa NNW 1.0 mph /  1.6 km/h 6.0 mph /  9.7 km/h 76 % 0.00 in /  0 mm 179 W/m2
11:41 52.5 °F /  11.4 °C 45.2 °F /  7.3 °C 30.19 in /  1022.2 hPa North 1.0 mph /  1.6 km/h 6.0 mph /  9.7 km/h 76 % 0.00 in /  0 mm 199 W/m2
11:46 52.5 °F /  11.4 °C 45.2 °F /  7.3 °C 30.19 in /  1022.2 hPa NNE 1.0 mph /  1.6 km/h 4.0 mph /  6.4 km/h 76 % 0.00 in /  0 mm 243 W/m2
11:51 52.5 °F /  11.4 °C 45.2 °F /  7.3 °C 30.20 in /  1022.6 hPa Calm   4.0 mph /  6.4 km/h 76 % 0.00 in /  0 mm 264 W/m2
11:56 52.5 °F /  11.4 °C 44.8 °F /  7.1 °C 30.19 in /  1022.2 hPa NE 1.0 mph /  1.6 km/h 5.0 mph /  8 km/h 75 % 0.00 in /  0 mm 364 W/m2
12:01 52.5 °F /  11.4 °C 44.8 °F /  7.1 °C 30.19 in /  1022.2 hPa ENE 1.0 mph /  1.6 km/h 5.0 mph /  8 km/h 75 % 0.00 in /  0 mm 455 W/m2
12:06 52.9 °F /  11.6 °C 45.2 °F /  7.3 °C 30.19 in /  1022.2 hPa ENE 1.0 mph /  1.6 km/h 5.0 mph /  8 km/h 75 % 0.00 in /  0 mm 480 W/m2
12:12 53.1 °F /  11.7 °C 45.0 °F /  7.2 °C 30.19 in /  1022.2 hPa ENE 1.0 mph /  1.6 km/h 5.0 mph /  8 km/h 74 % 0.00 in /  0 mm 394 W/m2
12:17 53.2 °F /  11.8 °C 44.8 °F /  7.1 °C 30.19 in /  1022.2 hPa ENE 1.0 mph /  1.6 km/h 4.0 mph /  6.4 km/h 73 % 0.00 in /  0 mm 410 W/m2
12:22 53.8 °F /  12.1 °C 45.7 °F /  7.6 °C 30.19 in /  1022.2 hPa Calm   4.0 mph /  6.4 km/h 74 % 0.00 in /  0 mm 401 W/m2
12:27 54.3 °F /  12.4 °C 45.8 °F /  7.7 °C 30.19 in /  1022.2 hPa NW 1.0 mph /  1.6 km/h 4.0 mph /  6.4 km/h 73 % 0.00 in /  0 mm 339 W/m2
12:32 54.5 °F /  12.5 °C 45.7 °F /  7.6 °C 30.19 in /  1022.2 hPa NW 1.0 mph /  1.6 km/h 4.0 mph /  6.4 km/h 72 % 0.00 in /  0 mm 271 W/m2
12:37 54.7 °F /  12.6 °C 45.1 °F /  7.3 °C 30.20 in /  1022.6 hPa Calm   3.0 mph /  4.8 km/h 70 % 0.00 in /  0 mm 237 W/m2
12:42 54.7 °F /  12.6 °C 45.1 °F /  7.3 °C 30.20 in /  1022.6 hPa North 1.0 mph /  1.6 km/h 4.0 mph /  6.4 km/h 70 % 0.00 in /  0 mm 258 W/m2
12:47 54.7 °F /  12.6 °C 44.7 °F /  7.1 °C 30.20 in /  1022.6 hPa NNW 1.0 mph /  1.6 km/h 4.0 mph /  6.4 km/h 69 % 0.00 in /  0 mm 322 W/m2
12:52 54.9 °F /  12.7 °C 45.3 °F /  7.4 °C 30.20 in /  1022.6 hPa Calm   2.0 mph /  3.2 km/h 70 % 0.00 in /  0 mm 360 W/m2
12:57 55.2 °F /  12.9 °C 45.6 °F /  7.6 °C 30.19 in /  1022.2 hPa NNW 1.0 mph /  1.6 km/h 5.0 mph /  8 km/h 70 % 0.00 in /  0 mm 541 W/m2
13:02 55.8 °F /  13.2 °C 45.4 °F /  7.4 °C 30.19 in /  1022.2 hPa NNW 1.0 mph /  1.6 km/h 5.0 mph /  8 km/h 68 % 0.00 in /  0 mm 1062 W/m2
13:07 56.1 °F /  13.4 °C 45.3 °F /  7.4 °C 30.20 in /  1022.6 hPa West 2.0 mph /  3.2 km/h 6.0 mph /  9.7 km/h 67 % 0.00 in /  0 mm 489 W/m2
13:12 56.1 °F /  13.4 °C 45.3 °F /  7.4 °C 30.20 in /  1022.6 hPa West 2.0 mph /  3.2 km/h 6.0 mph /  9.7 km/h 67 % 0.00 in /  0 mm 789 W/m2
13:17 56.5 °F /  13.6 °C 45.3 °F /  7.4 °C 30.20 in /  1022.6 hPa West 1.0 mph /  1.6 km/h 4.0 mph /  6.4 km/h 66 % 0.00 in /  0 mm 362 W/m2
13:22 56.3 °F /  13.5 °C 45.1 °F /  7.3 °C 30.20 in /  1022.6 hPa Calm   2.0 mph /  3.2 km/h 66 % 0.00 in /  0 mm 362 W/m2
13:27 56.5 °F /  13.6 °C 44.9 °F /  7.2 °C 30.20 in /  1022.6 hPa WNW 1.0 mph /  1.6 km/h 7.0 mph /  11.3 km/h 65 % 0.00 in /  0 mm 279 W/m2
13:32 56.5 °F /  13.6 °C 44.9 °F /  7.2 °C 30.20 in /  1022.6 hPa NW 2.0 mph /  3.2 km/h 7.0 mph /  11.3 km/h 65 % 0.00 in /  0 mm 313 W/m2
13:37 56.5 °F /  13.6 °C 44.9 °F /  7.2 °C 30.20 in /  1022.6 hPa NNW 1.0 mph /  1.6 km/h 4.0 mph /  6.4 km/h 65 % 0.00 in /  0 mm 311 W/m2
13:42 56.7 °F /  13.7 °C 45.4 °F /  7.4 °C 30.20 in /  1022.6 hPa NW 1.0 mph /  1.6 km/h 4.0 mph /  6.4 km/h 66 % 0.00 in /  0 mm 490 W/m2
13:47 57.0 °F /  13.9 °C 46.2 °F /  7.9 °C 30.19 in /  1022.2 hPa North 2.0 mph /  3.2 km/h 7.0 mph /  11.3 km/h 67 % 0.00 in /  0 mm 979 W/m2
13:52 57.4 °F /  14.1 °C 45.7 °F /  7.6 °C 30.19 in /  1022.2 hPa NNE 3.0 mph /  4.8 km/h 8.0 mph /  12.9 km/h 65 % 0.00 in /  0 mm 606 W/m2
13:57 57.4 °F /  14.1 °C 45.7 °F /  7.6 °C 30.20 in /  1022.6 hPa NNE 3.0 mph /  4.8 km/h 8.0 mph /  12.9 km/h 65 % 0.00 in /  0 mm 262 W/m2
14:02 57.2 °F /  14 °C 45.5 °F /  7.5 °C 30.20 in /  1022.6 hPa NNW 3.0 mph /  4.8 km/h 7.0 mph /  11.3 km/h 65 % 0.00 in /  0 mm 264 W/m2
14:07 57.2 °F /  14 °C 45.1 °F /  7.3 °C 30.20 in /  1022.6 hPa NNW 3.0 mph /  4.8 km/h 7.0 mph /  11.3 km/h 64 % 0.00 in /  0 mm 271 W/m2
14:12 56.8 °F /  13.8 °C 44.8 °F /  7.1 °C 30.20 in /  1022.6 hPa NNW 3.0 mph /  4.8 km/h 7.0 mph /  11.3 km/h 64 % 0.00 in /  0 mm 292 W/m2
14:17 56.7 °F /  13.7 °C 44.6 °F /  7 °C 30.20 in /  1022.6 hPa North 2.0 mph /  3.2 km/h 7.0 mph /  11.3 km/h 64 % 0.00 in /  0 mm 294 W/m2
14:22 56.7 °F /  13.7 °C 44.6 °F /  7 °C 30.19 in /  1022.2 hPa North 1.0 mph /  1.6 km/h 4.0 mph /  6.4 km/h 64 % 0.00 in /  0 mm 350 W/m2
14:27 56.8 °F /  13.8 °C 44.8 °F /  7.1 °C 30.20 in /  1022.6 hPa North 2.0 mph /  3.2 km/h 6.0 mph /  9.7 km/h 64 % 0.00 in /  0 mm 886 W/m2
14:32 56.8 °F /  13.8 °C 44.4 °F /  6.9 °C 30.20 in /  1022.6 hPa NE 2.0 mph /  3.2 km/h 6.0 mph /  9.7 km/h 63 % 0.00 in /  0 mm 255 W/m2
14:37 57.0 °F /  13.9 °C 44.5 °F /  6.9 °C 30.20 in /  1022.6 hPa East 2.0 mph /  3.2 km/h 6.0 mph /  9.7 km/h 63 % 0.00 in /  0 mm 318 W/m2
14:42 57.0 °F /  13.9 °C 43.7 °F /  6.5 °C 30.20 in /  1022.6 hPa East 2.0 mph /  3.2 km/h 6.0 mph /  9.7 km/h 61 % 0.00 in /  0 mm 246 W/m2
14:48 56.7 °F /  13.7 °C 43.4 °F /  6.3 °C 30.20 in /  1022.6 hPa ENE 2.0 mph /  3.2 km/h 5.0 mph /  8 km/h 61 % 0.00 in /  0 mm 234 W/m2
14:52 56.5 °F /  13.6 °C 43.6 °F /  6.4 °C 30.20 in /  1022.6 hPa ENE 1.0 mph /  1.6 km/h 5.0 mph /  8 km/h 62 % 0.00 in /  0 mm 279 W/m2
14:58 56.5 °F /  13.6 °C 42.8 °F /  6 °C 30.20 in /  1022.6 hPa East 1.0 mph /  1.6 km/h 4.0 mph /  6.4 km/h 60 % 0.00 in /  0 mm 250 W/m2
15:03 56.5 °F /  13.6 °C 43.2 °F /  6.2 °C 30.20 in /  1022.6 hPa SE 1.0 mph /  1.6 km/h 5.0 mph /  8 km/h 61 % 0.00 in /  0 mm 278 W/m2
15:08 56.7 °F /  13.7 °C 42.5 °F /  5.8 °C 30.20 in /  1022.6 hPa SSE 1.0 mph /  1.6 km/h 5.0 mph /  8 km/h 59 % 0.00 in /  0 mm 257 W/m2
15:13 56.7 °F /  13.7 °C 42.9 °F /  6.1 °C 30.20 in /  1022.6 hPa SSW 2.0 mph /  3.2 km/h 5.0 mph /  8 km/h 60 % 0.00 in /  0 mm 276 W/m2
15:18 56.7 °F /  13.7 °C 42.9 °F /  6.1 °C 30.20 in /  1022.6 hPa SSW 2.0 mph /  3.2 km/h 5.0 mph /  8 km/h 60 % 0.00 in /  0 mm 722 W/m2
15:23 57.0 °F /  13.9 °C 42.8 °F /  6 °C 30.20 in /  1022.6 hPa South 2.0 mph /  3.2 km/h 7.0 mph /  11.3 km/h 59 % 0.00 in /  0 mm 582 W/m2
15:28 57.4 °F /  14.1 °C 43.2 °F /  6.2 °C 30.20 in /  1022.6 hPa SSE 3.0 mph /  4.8 km/h 7.0 mph /  11.3 km/h 59 % 0.00 in /  0 mm 236 W/m2
15:33 57.4 °F /  14.1 °C 43.2 °F /  6.2 °C 30.20 in /  1022.6 hPa South 2.0 mph /  3.2 km/h 7.0 mph /  11.3 km/h 59 % 0.00 in /  0 mm 267 W/m2
15:38 57.4 °F /  14.1 °C 42.3 °F /  5.7 °C 30.20 in /  1022.6 hPa SSW 1.0 mph /  1.6 km/h 4.0 mph /  6.4 km/h 57 % 0.00 in /  0 mm 304 W/m2
15:43 57.6 °F /  14.2 °C 42.9 °F /  6.1 °C 30.20 in /  1022.6 hPa SW 1.0 mph /  1.6 km/h 5.0 mph /  8 km/h 58 % 0.00 in /  0 mm 765 W/m2
15:48 57.9 °F /  14.4 °C 42.8 °F /  6 °C 30.20 in /  1022.6 hPa West 2.0 mph /  3.2 km/h 6.0 mph /  9.7 km/h 57 % 0.00 in /  0 mm 239 W/m2
15:53 58.1 °F /  14.5 °C 43.4 °F /  6.3 °C 30.20 in /  1022.6 hPa WNW 4.0 mph /  6.4 km/h 6.0 mph /  9.7 km/h 58 % 0.00 in /  0 mm 656 W/m2
15:58 58.3 °F /  14.6 °C 43.1 °F /  6.2 °C 30.20 in /  1022.6 hPa West 4.0 mph /  6.4 km/h 6.0 mph /  9.7 km/h 57 % 0.00 in /  0 mm 172 W/m2
16:03 58.5 °F /  14.7 °C 42.8 °F /  6 °C 30.20 in /  1022.6 hPa West 2.0 mph /  3.2 km/h 6.0 mph /  9.7 km/h 56 % 0.00 in /  0 mm 589 W/m2
16:08 58.8 °F /  14.9 °C 42.7 °F /  5.9 °C 30.20 in /  1022.6 hPa West 1.0 mph /  1.6 km/h 6.0 mph /  9.7 km/h 55 % 0.00 in /  0 mm 176 W/m2
16:13 58.8 °F /  14.9 °C 42.7 °F /  5.9 °C 30.20 in /  1022.6 hPa West 1.0 mph /  1.6 km/h 6.0 mph /  9.7 km/h 55 % 0.00 in /  0 mm 200 W/m2
16:18 58.6 °F /  14.8 °C 42.5 °F /  5.8 °C 30.21 in /  1022.9 hPa West 1.0 mph /  1.6 km/h 6.0 mph /  9.7 km/h 55 % 0.00 in /  0 mm 209 W/m2
16:23 58.5 °F /  14.7 °C 41.9 °F /  5.5 °C 30.20 in /  1022.6 hPa West 2.0 mph /  3.2 km/h 6.0 mph /  9.7 km/h 54 % 0.00 in /  0 mm 243 W/m2
16:28 58.5 °F /  14.7 °C 42.8 °F /  6 °C 30.20 in /  1022.6 hPa West 1.0 mph /  1.6 km/h 5.0 mph /  8 km/h 56 % 0.00 in /  0 mm 211 W/m2
16:33 58.3 °F /  14.6 °C 42.2 °F /  5.7 °C 30.20 in /  1022.6 hPa West 1.0 mph /  1.6 km/h 3.0 mph /  4.8 km/h 55 % 0.00 in /  0 mm 209 W/m2
16:43 58.1 °F /  14.5 °C 42.5 °F /  5.8 °C 30.20 in /  1022.6 hPa WNW 1.0 mph /  1.6 km/h 5.0 mph /  8 km/h 56 % 0.00 in /  0 mm 478 W/m2
16:48 58.5 °F /  14.7 °C 42.3 °F /  5.7 °C 30.20 in /  1022.6 hPa WNW 1.0 mph /  1.6 km/h 5.0 mph /  8 km/h 55 % 0.00 in /  0 mm 192 W/m2
16:53 58.5 °F /  14.7 °C 41.9 °F /  5.5 °C 30.20 in /  1022.6 hPa WNW 2.0 mph /  3.2 km/h 5.0 mph /  8 km/h 54 % 0.00 in /  0 mm 178 W/m2
17:03 58.3 °F /  14.6 °C 41.7 °F /  5.4 °C 30.20 in /  1022.6 hPa WNW 1.0 mph /  1.6 km/h 5.0 mph /  8 km/h 54 % 0.00 in /  0 mm 167 W/m2
17:08 58.1 °F /  14.5 °C 41.5 °F /  5.3 °C 30.20 in /  1022.6 hPa WNW 1.0 mph /  1.6 km/h 4.0 mph /  6.4 km/h 54 % 0.00 in /  0 mm 160 W/m2
17:14 57.7 °F /  14.3 °C 41.7 °F /  5.4 °C 30.20 in /  1022.6 hPa WNW 1.0 mph /  1.6 km/h 5.0 mph /  8 km/h 55 % 0.00 in /  0 mm 355 W/m2
17:19 58.3 °F /  14.6 °C 42.2 °F /  5.7 °C 30.20 in /  1022.6 hPa WNW 1.0 mph /  1.6 km/h 5.0 mph /  8 km/h 55 % 0.00 in /  0 mm 415 W/m2
17:24 58.6 °F /  14.8 °C 41.5 °F /  5.3 °C 30.20 in /  1022.6 hPa WNW 1.0 mph /  1.6 km/h 5.0 mph /  8 km/h 53 % 0.00 in /  0 mm 369 W/m2
17:29 59.0 °F /  15 °C 41.4 °F /  5.2 °C 30.20 in /  1022.6 hPa WNW 1.0 mph /  1.6 km/h 4.0 mph /  6.4 km/h 52 % 0.00 in /  0 mm 338 W/m2
17:34 59.2 °F /  15.1 °C 42.0 °F /  5.6 °C 30.20 in /  1022.6 hPa WNW 1.0 mph /  1.6 km/h 4.0 mph /  6.4 km/h 53 % 0.00 in /  0 mm 237 W/m2
17:39 59.0 °F /  15 °C 41.9 °F /  5.5 °C 30.21 in /  1022.9 hPa WNW 2.0 mph /  3.2 km/h 5.0 mph /  8 km/h 53 % 0.00 in /  0 mm 294 W/m2
17:44 59.2 °F /  15.1 °C 42.0 °F /  5.6 °C 30.21 in /  1022.9 hPa West 2.0 mph /  3.2 km/h 5.0 mph /  8 km/h 53 % 0.00 in /  0 mm 281 W/m2
17:49 59.5 °F /  15.3 °C 41.4 °F /  5.2 °C 30.21 in /  1022.9 hPa West 1.0 mph /  1.6 km/h 5.0 mph /  8 km/h 51 % 0.00 in /  0 mm 206 W/m2
17:54 59.5 °F /  15.3 °C 41.4 °F /  5.2 °C 30.21 in /  1022.9 hPa West 1.0 mph /  1.6 km/h 3.0 mph /  4.8 km/h 51 % 0.00 in /  0 mm 248 W/m2
17:59 59.4 °F /  15.2 °C 41.2 °F /  5.1 °C 30.21 in /  1022.9 hPa West 1.0 mph /  1.6 km/h 4.0 mph /  6.4 km/h 51 % 0.00 in /  0 mm 179 W/m2
18:04 59.4 °F /  15.2 °C 41.2 °F /  5.1 °C 30.21 in /  1022.9 hPa West 1.0 mph /  1.6 km/h 4.0 mph /  6.4 km/h 51 % 0.00 in /  0 mm 202 W/m2
18:09 59.0 °F /  15 °C 41.4 °F /  5.2 °C 30.21 in /  1022.9 hPa West 1.0 mph /  1.6 km/h 4.0 mph /  6.4 km/h 52 % 0.00 in /  0 mm 63 W/m2
18:14 58.8 °F /  14.9 °C 41.7 °F /  5.4 °C 30.21 in /  1022.9 hPa Calm   2.0 mph /  3.2 km/h 53 % 0.00 in /  0 mm 176 W/m2
18:19 58.5 °F /  14.7 °C 41.9 °F /  5.5 °C 30.21 in /  1022.9 hPa Calm   2.0 mph /  3.2 km/h 54 % 0.00 in /  0 mm 188 W/m2
18:24 58.5 °F /  14.7 °C 42.3 °F /  5.7 °C 30.21 in /  1022.9 hPa Calm   2.0 mph /  3.2 km/h 55 % 0.00 in /  0 mm 195 W/m2
18:29 58.3 °F /  14.6 °C 42.6 °F /  5.9 °C 30.21 in /  1022.9 hPa Calm   2.0 mph /  3.2 km/h 56 % 0.00 in /  0 mm 76 W/m2
18:34 57.9 °F /  14.4 °C 42.3 °F /  5.7 °C 30.22 in /  1023.2 hPa SE 1.0 mph /  1.6 km/h 6.0 mph /  9.7 km/h 56 % 0.00 in /  0 mm 67 W/m2
18:39 57.6 °F /  14.2 °C 42.9 °F /  6.1 °C 30.22 in /  1023.2 hPa ESE 3.0 mph /  4.8 km/h 6.0 mph /  9.7 km/h 58 % 0.00 in /  0 mm 70 W/m2
18:44 57.2 °F /  14 °C 42.5 °F /  5.8 °C 30.22 in /  1023.2 hPa ESE 2.0 mph /  3.2 km/h 5.0 mph /  8 km/h 58 % 0.00 in /  0 mm 84 W/m2
18:49 56.8 °F /  13.8 °C 42.7 °F /  5.9 °C 30.22 in /  1023.2 hPa East 2.0 mph /  3.2 km/h 5.0 mph /  8 km/h 59 % 0.00 in /  0 mm 93 W/m2
18:54 56.7 °F /  13.7 °C 42.9 °F /  6.1 °C 30.22 in /  1023.2 hPa East 1.0 mph /  1.6 km/h 6.0 mph /  9.7 km/h 60 % 0.00 in /  0 mm 84 W/m2
18:59 56.5 °F /  13.6 °C 43.2 °F /  6.2 °C 30.22 in /  1023.2 hPa ESE 3.0 mph /  4.8 km/h 8.0 mph /  12.9 km/h 61 % 0.00 in /  0 mm 42 W/m2
19:04 56.3 °F /  13.5 °C 43.4 °F /  6.3 °C 30.22 in /  1023.2 hPa SE 4.0 mph /  6.4 km/h 8.0 mph /  12.9 km/h 62 % 0.00 in /  0 mm 33 W/m2
19:09 56.1 °F /  13.4 °C 43.3 °F /  6.3 °C 30.22 in /  1023.2 hPa SE 3.0 mph /  4.8 km/h 6.0 mph /  9.7 km/h 62 % 0.00 in /  0 mm 28 W/m2
19:14 55.9 °F /  13.3 °C 43.1 °F /  6.2 °C 30.22 in /  1023.2 hPa SE 2.0 mph /  3.2 km/h 6.0 mph /  9.7 km/h 62 % 0.00 in /  0 mm 21 W/m2
19:19 55.8 °F /  13.2 °C 43.3 °F /  6.3 °C 30.22 in /  1023.2 hPa SE 2.0 mph /  3.2 km/h 6.0 mph /  9.7 km/h 63 % 0.00 in /  0 mm 14 W/m2
19:24 55.6 °F /  13.1 °C 43.2 °F /  6.2 °C 30.22 in /  1023.2 hPa SE 2.0 mph /  3.2 km/h 5.0 mph /  8 km/h 63 % 0.00 in /  0 mm 9 W/m2
19:29 55.2 °F /  12.9 °C 43.2 °F /  6.2 °C 30.22 in /  1023.2 hPa SE 1.0 mph /  1.6 km/h 5.0 mph /  8 km/h 64 % 0.00 in /  0 mm 5 W/m2
19:34 55.0 °F /  12.8 °C 43.5 °F /  6.4 °C 30.22 in /  1023.2 hPa Calm   2.0 mph /  3.2 km/h 65 % 0.00 in /  0 mm 5 W/m2
19:40 54.9 °F /  12.7 °C 43.3 °F /  6.3 °C 30.23 in /  1023.6 hPa Calm   2.0 mph /  3.2 km/h 65 % 0.00 in /  0 mm 0 W/m2
19:45 54.7 °F /  12.6 °C 43.5 °F /  6.4 °C 30.23 in /  1023.6 hPa Calm   1.0 mph /  1.6 km/h 66 % 0.00 in /  0 mm 0 W/m2
19:49 54.1 °F /  12.3 °C 43.0 °F /  6.1 °C 30.23 in /  1023.6 hPa Calm   1.0 mph /  1.6 km/h 66 % 0.00 in /  0 mm 0 W/m2
19:54 53.8 °F /  12.1 °C 42.7 °F /  5.9 °C 30.23 in /  1023.6 hPa Calm     66 % 0.00 in /  0 mm 0 W/m2
20:00 53.2 °F /  11.8 °C 42.6 °F /  5.9 °C 30.23 in /  1023.6 hPa Calm     67 % 0.00 in /  0 mm 0 W/m2
20:04 52.9 °F /  11.6 °C 42.6 °F /  5.9 °C 30.23 in /  1023.6 hPa Calm     68 % 0.00 in /  0 mm 0 W/m2
20:10 52.5 °F /  11.4 °C 42.6 °F /  5.9 °C 30.24 in /  1023.9 hPa Calm   1.0 mph /  1.6 km/h 69 % 0.00 in /  0 mm 0 W/m2
20:15 52.2 °F /  11.2 °C 42.7 °F /  5.9 °C 30.24 in /  1023.9 hPa Calm   1.0 mph /  1.6 km/h 70 % 0.00 in /  0 mm 0 W/m2
20:20 52.0 °F /  11.1 °C 42.5 °F /  5.8 °C 30.24 in /  1023.9 hPa Calm   1.0 mph /  1.6 km/h 70 % 0.00 in /  0 mm 0 W/m2
20:25 51.6 °F /  10.9 °C 42.5 °F /  5.8 °C 30.24 in /  1023.9 hPa Calm   5.0 mph /  8 km/h 71 % 0.00 in /  0 mm 0 W/m2
20:30 51.4 °F /  10.8 °C 42.7 °F /  5.9 °C 30.24 in /  1023.9 hPa Calm   5.0 mph /  8 km/h 72 % 0.00 in /  0 mm 0 W/m2
20:35 51.4 °F /  10.8 °C 43.1 °F /  6.2 °C 30.24 in /  1023.9 hPa Calm   4.0 mph /  6.4 km/h 73 % 0.00 in /  0 mm 0 W/m2
20:40 51.1 °F /  10.6 °C 42.7 °F /  5.9 °C 30.25 in /  1024.3 hPa SW 1.0 mph /  1.6 km/h 2.0 mph /  3.2 km/h 73 % 0.00 in /  0 mm 0 W/m2
20:45 51.1 °F /  10.6 °C 43.1 °F /  6.2 °C 30.25 in /  1024.3 hPa SW 1.0 mph /  1.6 km/h 2.0 mph /  3.2 km/h 74 % 0.00 in /  0 mm 0 W/m2
20:50 51.1 °F /  10.6 °C 43.4 °F /  6.3 °C 30.25 in /  1024.3 hPa Calm   2.0 mph /  3.2 km/h 75 % 0.00 in /  0 mm 0 W/m2
20:55 51.1 °F /  10.6 °C 43.4 °F /  6.3 °C 30.25 in /  1024.3 hPa Calm   3.0 mph /  4.8 km/h 75 % 0.00 in /  0 mm 0 W/m2
21:00 51.3 °F /  10.7 °C 44.0 °F /  6.7 °C 30.25 in /  1024.3 hPa Calm   3.0 mph /  4.8 km/h 76 % 0.00 in /  0 mm 0 W/m2
21:05 51.3 °F /  10.7 °C 44.0 °F /  6.7 °C 30.25 in /  1024.3 hPa Calm   1.0 mph /  1.6 km/h 76 % 0.00 in /  0 mm 0 W/m2
21:10 51.4 °F /  10.8 °C 44.1 °F /  6.7 °C 30.25 in /  1024.3 hPa Calm   1.0 mph /  1.6 km/h 76 % 0.00 in /  0 mm 0 W/m2
21:15 51.3 °F /  10.7 °C 44.0 °F /  6.7 °C 30.25 in /  1024.3 hPa Calm   1.0 mph /  1.6 km/h 76 % 0.00 in /  0 mm 0 W/m2
21:20 51.1 °F /  10.6 °C 43.8 °F /  6.6 °C 30.25 in /  1024.3 hPa Calm     76 % 0.00 in /  0 mm 0 W/m2
21:25 50.9 °F /  10.5 °C 43.9 °F /  6.6 °C 30.26 in /  1024.6 hPa Calm     77 % 0.00 in /  0 mm 0 W/m2
21:30 50.9 °F /  10.5 °C 43.9 °F /  6.6 °C 30.26 in /  1024.6 hPa Calm   3.0 mph /  4.8 km/h 77 % 0.00 in /  0 mm 0 W/m2
21:35 50.7 °F /  10.4 °C 43.8 °F /  6.6 °C 30.26 in /  1024.6 hPa Calm   3.0 mph /  4.8 km/h 77 % 0.00 in /  0 mm 0 W/m2
21:40 50.5 °F /  10.3 °C 43.6 °F /  6.4 °C 30.26 in /  1024.6 hPa Calm   2.0 mph /  3.2 km/h 77 % 0.00 in /  0 mm 0 W/m2
21:45 50.4 °F /  10.2 °C 43.4 °F /  6.3 °C 30.26 in /  1024.6 hPa Calm   1.0 mph /  1.6 km/h 77 % 0.00 in /  0 mm 0 W/m2
21:50 50.0 °F /  10 °C 43.4 °F /  6.3 °C 30.26 in /  1024.6 hPa Calm   1.0 mph /  1.6 km/h 78 % 0.00 in /  0 mm 0 W/m2
21:55 49.6 °F /  9.8 °C 43.1 °F /  6.2 °C 30.26 in /  1024.6 hPa Calm     78 % 0.00 in /  0 mm 0 W/m2
22:00 49.5 °F /  9.7 °C 42.9 °F /  6.1 °C 30.26 in /  1024.6 hPa Calm     78 % 0.00 in /  0 mm 0 W/m2
22:05 48.9 °F /  9.4 °C 42.4 °F /  5.8 °C 30.26 in /  1024.6 hPa Calm   2.0 mph /  3.2 km/h 78 % 0.00 in /  0 mm 0 W/m2
22:10 48.6 °F /  9.2 °C 42.0 °F /  5.6 °C 30.26 in /  1024.6 hPa West 1.0 mph /  1.6 km/h 4.0 mph /  6.4 km/h 78 % 0.00 in /  0 mm 0 W/m2
22:15 48.4 °F /  9.1 °C 41.8 °F /  5.4 °C 30.26 in /  1024.6 hPa West 1.0 mph /  1.6 km/h 4.0 mph /  6.4 km/h 78 % 0.00 in /  0 mm 0 W/m2
22:20 47.8 °F /  8.8 °C 41.3 °F /  5.2 °C 30.26 in /  1024.6 hPa Calm   2.0 mph /  3.2 km/h 78 % 0.00 in /  0 mm 0 W/m2
22:25 47.5 °F /  8.6 °C 41.3 °F /  5.2 °C 30.26 in /  1024.6 hPa Calm     79 % 0.00 in /  0 mm 0 W/m2
22:30 47.1 °F /  8.4 °C 41.3 °F /  5.2 °C 30.27 in /  1024.9 hPa Calm     80 % 0.00 in /  0 mm 0 W/m2
22:35 46.9 °F /  8.3 °C 41.4 °F /  5.2 °C 30.26 in /  1024.6 hPa Calm     81 % 0.00 in /  0 mm 0 W/m2
22:40 46.6 °F /  8.1 °C 41.1 °F /  5.1 °C 30.26 in /  1024.6 hPa Calm     81 % 0.00 in /  0 mm 0 W/m2
22:45 46.2 °F /  7.9 °C 40.7 °F /  4.8 °C 30.26 in /  1024.6 hPa Calm     81 % 0.00 in /  0 mm 0 W/m2
22:50 45.9 °F /  7.7 °C 40.7 °F /  4.8 °C 30.26 in /  1024.6 hPa Calm     82 % 0.00 in /  0 mm 0 W/m2
22:55 45.7 °F /  7.6 °C 40.5 °F /  4.7 °C 30.26 in /  1024.6 hPa Calm     82 % 0.00 in /  0 mm 0 W/m2
23:01 45.1 °F /  7.3 °C 40.3 °F /  4.6 °C 30.26 in /  1024.6 hPa Calm     83 % 0.00 in /  0 mm 0 W/m2
23:06 45.0 °F /  7.2 °C 40.4 °F /  4.7 °C 30.26 in /  1024.6 hPa Calm     84 % 0.00 in /  0 mm 0 W/m2
23:11 44.8 °F /  7.1 °C 40.2 °F /  4.6 °C 30.26 in /  1024.6 hPa Calm     84 % 0.00 in /  0 mm 0 W/m2
23:16 44.8 °F /  7.1 °C 40.5 °F /  4.7 °C 30.27 in /  1024.9 hPa Calm     85 % 0.00 in /  0 mm 0 W/m2
23:17 44.8 °F /  7.1 °C 40.5 °F /  4.7 °C 30.27 in /  1024.9 hPa Calm     85 % 0.00 in /  0 mm 0 W/m2
23:22 44.4 °F /  6.9 °C 39.9 °F /  4.4 °C 30.27 in /  1024.9 hPa Calm     84 % 0.00 in /  0 mm 0 W/m2
23:27 44.2 °F /  6.8 °C 40.0 °F /  4.4 °C 30.27 in /  1024.9 hPa Calm     85 % 0.00 in /  0 mm 0 W/m2
23:32 43.9 °F /  6.6 °C 40.0 °F /  4.4 °C 30.27 in /  1024.9 hPa Calm     86 % 0.00 in /  0 mm 0 W/m2
23:33 43.9 °F /  6.6 °C 40.0 °F /  4.4 °C 30.26 in /  1024.6 hPa Calm     86 % 0.00 in /  0 mm 0 W/m2
23:38 43.7 °F /  6.5 °C 39.5 °F /  4.2 °C 30.27 in /  1024.9 hPa Calm     85 % 0.00 in /  0 mm 0 W/m2
23:43 43.3 °F /  6.3 °C 39.1 °F /  3.9 °C 30.27 in /  1024.9 hPa Calm     85 % 0.00 in /  0 mm 0 W/m2
23:48 43.2 °F /  6.2 °C 39.3 °F /  4.1 °C 30.27 in /  1024.9 hPa Calm   1.0 mph /  1.6 km/h 86 % 0.00 in /  0 mm 0 W/m2
23:53 43.0 °F /  6.1 °C 39.4 °F /  4.1 °C 30.27 in /  1024.9 hPa Calm   2.0 mph /  3.2 km/h 87 % 0.00 in /  0 mm 0 W/m2
23:58 42.6 °F /  5.9 °C 39.0 °F /  3.9 °C 30.27 in /  1024.9 hPa Calm   2.0 mph /  3.2 km/h 87 % 0.00 in /  0 mm 0 W/m2
Delerius-Weather
Compliments of Weather Underground - 2.25 mb

Data updates at regular intervals.